createdAt,value
2019-03-28T00:00:54.821Z,40.98
2019-03-28T00:01:54.811Z,41.02
2019-03-28T00:02:54.807Z,41.03
2019-03-28T00:03:54.829Z,41.14
2019-03-28T00:04:54.797Z,41.05
2019-03-28T00:05:54.783Z,41.08
2019-03-28T00:06:54.779Z,41.07
2019-03-28T00:07:54.783Z,41.08
2019-03-28T00:08:54.758Z,41.09
2019-03-28T00:09:54.765Z,41.11
2019-03-28T00:10:54.782Z,41.10
2019-03-28T00:11:54.751Z,41.24
2019-03-28T00:12:54.739Z,41.04
2019-03-28T00:13:55.168Z,40.99
2019-03-28T00:14:54.751Z,41.07
2019-03-28T00:15:54.730Z,41.03
2019-03-28T00:16:54.721Z,41.10
2019-03-28T00:17:54.726Z,41.14
2019-03-28T00:18:57.373Z,41.13
2019-03-28T00:19:54.706Z,41.05
2019-03-28T00:20:54.708Z,41.06
2019-03-28T00:21:54.689Z,41.20
2019-03-28T00:22:54.670Z,41.12
2019-03-28T00:23:54.675Z,41.18
2019-03-28T00:24:54.685Z,41.14
2019-03-28T00:25:54.659Z,41.18
2019-03-28T00:26:54.646Z,40.98
2019-03-28T00:27:54.645Z,41.14
2019-03-28T00:28:55.506Z,41.04
2019-03-28T00:29:54.631Z,41.22
2019-03-28T00:30:54.634Z,41.24
2019-03-28T00:31:54.616Z,41.04
2019-03-28T00:32:54.599Z,41.07
2019-03-28T00:33:54.592Z,41.10
2019-03-28T00:34:54.593Z,41.11
2019-03-28T00:35:54.573Z,41.18
2019-03-28T00:36:54.592Z,41.16
2019-03-28T00:37:54.591Z,41.03
2019-03-28T00:38:54.579Z,41.07
2019-03-28T00:39:54.570Z,40.99
2019-03-28T00:40:55.175Z,41.00
2019-03-28T00:41:54.572Z,41.13
2019-03-28T00:42:54.547Z,41.07
2019-03-28T00:43:54.533Z,41.04
2019-03-28T00:44:54.545Z,41.21
2019-03-28T00:45:54.518Z,41.11
2019-03-28T00:46:54.519Z,41.10
2019-03-28T00:47:54.511Z,41.15
2019-03-28T00:48:54.541Z,41.07
2019-03-28T00:49:54.489Z,41.07
2019-03-28T00:50:54.493Z,41.19
2019-03-28T00:51:54.474Z,41.07
2019-03-28T00:52:54.476Z,41.07
2019-03-28T00:53:54.489Z,41.05
2019-03-28T00:54:54.479Z,41.11
2019-03-28T00:55:54.452Z,41.11
2019-03-28T00:56:54.436Z,41.10
2019-03-28T00:57:54.439Z,41.06
2019-03-28T00:58:54.421Z,41.14
2019-03-28T00:59:54.414Z,41.04
2019-03-28T01:00:54.414Z,41.07
2019-03-28T01:01:54.405Z,40.99
2019-03-28T01:02:54.392Z,41.09
2019-03-28T01:03:54.386Z,41.05
2019-03-28T01:04:54.385Z,41.07
2019-03-28T01:05:54.371Z,41.09
2019-03-28T01:06:54.382Z,41.13
2019-03-28T01:07:54.389Z,41.11
2019-03-28T01:08:54.363Z,41.10
2019-03-28T01:09:54.333Z,41.01
2019-03-28T01:10:54.338Z,41.06
2019-03-28T01:11:54.321Z,41.05
2019-03-28T01:12:54.305Z,41.13
2019-03-28T01:13:54.341Z,41.32
2019-03-28T01:14:54.296Z,41.20
2019-03-28T01:15:54.292Z,40.96
2019-03-28T01:16:54.319Z,41.13
2019-03-28T01:17:54.683Z,41.38
2019-03-28T01:18:54.265Z,41.06
2019-03-28T01:19:54.275Z,41.08
2019-03-28T01:20:54.280Z,41.06
2019-03-28T01:21:54.264Z,41.08
2019-03-28T01:22:54.275Z,41.09
2019-03-28T01:23:54.248Z,41.03
2019-03-28T01:24:54.252Z,41.11
2019-03-28T01:25:54.269Z,41.04
2019-03-28T01:26:57.430Z,41.03
2019-03-28T01:27:55.264Z,40.98
2019-03-28T01:28:54.266Z,41.15
2019-03-28T01:29:54.253Z,40.96
2019-03-28T01:30:54.245Z,41.12
2019-03-28T01:31:54.257Z,41.01
2019-03-28T01:32:54.224Z,41.14
2019-03-28T01:33:54.219Z,40.76
2019-03-28T01:34:54.212Z,40.75
2019-03-28T01:35:54.204Z,40.71
2019-03-28T01:36:54.191Z,40.74
2019-03-28T01:37:54.479Z,40.72
2019-03-28T01:38:54.180Z,40.67
2019-03-28T01:39:54.170Z,40.74
2019-03-28T01:40:54.169Z,40.76
2019-03-28T01:41:54.155Z,40.75
2019-03-28T01:42:54.156Z,40.78
2019-03-28T01:43:54.199Z,40.76
2019-03-28T01:44:54.150Z,40.76
2019-03-28T01:45:54.149Z,40.74
2019-03-28T01:46:54.143Z,40.71
2019-03-28T01:47:54.123Z,40.73
2019-03-28T01:48:54.122Z,40.75
2019-03-28T01:49:54.100Z,40.96
2019-03-28T01:50:54.095Z,41.24
2019-03-28T01:51:54.096Z,41.03
2019-03-28T01:52:54.084Z,41.09
2019-03-28T01:53:54.081Z,40.92
2019-03-28T01:54:54.059Z,40.97
2019-03-28T01:55:54.057Z,41.00
2019-03-28T01:56:54.052Z,41.11
2019-03-28T01:57:54.044Z,41.01
2019-03-28T01:58:54.033Z,40.98
2019-03-28T01:59:54.023Z,41.05
2019-03-28T02:00:54.027Z,41.04
2019-03-28T02:01:54.004Z,41.03
2019-03-28T02:02:54.005Z,40.98
2019-03-28T02:03:54.024Z,41.09
2019-03-28T02:04:53.981Z,41.05
2019-03-28T02:05:53.978Z,41.04
2019-03-28T02:06:53.985Z,41.02
2019-03-28T02:07:53.965Z,40.99
2019-03-28T02:08:53.949Z,41.08
2019-03-28T02:09:53.960Z,41.27
2019-03-28T02:10:53.931Z,41.11
2019-03-28T02:11:53.931Z,41.02
2019-03-28T02:12:53.919Z,41.10
2019-03-28T02:13:53.916Z,40.98
2019-03-28T02:14:53.903Z,40.99
2019-03-28T02:15:53.899Z,40.91
2019-03-28T02:16:53.901Z,40.94
2019-03-28T02:17:53.893Z,40.99
2019-03-28T02:18:54.175Z,41.04
2019-03-28T02:19:53.882Z,40.99
2019-03-28T02:20:53.887Z,40.91
2019-03-28T02:21:53.878Z,40.89
2019-03-28T02:22:53.858Z,40.91
2019-03-28T02:23:53.858Z,40.96
2019-03-28T02:24:53.839Z,40.98
2019-03-28T02:25:53.831Z,41.24
2019-03-28T02:26:53.841Z,41.01
2019-03-28T02:27:53.818Z,41.01
2019-03-28T02:28:53.810Z,40.78
2019-03-28T02:29:53.798Z,40.74
2019-03-28T02:30:53.823Z,41.16
2019-03-28T02:31:53.814Z,40.80
2019-03-28T02:32:53.803Z,41.11
2019-03-28T02:33:53.803Z,41.19
2019-03-28T02:34:53.784Z,41.03
2019-03-28T02:35:53.773Z,41.02
2019-03-28T02:36:53.769Z,41.02
2019-03-28T02:37:53.775Z,40.80
2019-03-28T02:38:53.760Z,40.70
2019-03-28T02:39:53.761Z,40.81
2019-03-28T02:40:53.751Z,40.72
2019-03-28T02:41:53.769Z,40.76
2019-03-28T02:42:53.727Z,40.80
2019-03-28T02:43:53.729Z,41.77
2019-03-28T02:44:53.752Z,41.31
2019-03-28T02:45:53.712Z,40.77
2019-03-28T02:46:53.708Z,40.77
2019-03-28T02:47:53.693Z,40.73
2019-03-28T02:48:53.916Z,40.70
2019-03-28T02:49:54.679Z,40.80
2019-03-28T02:50:53.682Z,40.74
2019-03-28T02:51:53.683Z,40.81
2019-03-28T02:52:53.699Z,40.81
2019-03-28T02:53:53.690Z,41.02
2019-03-28T02:54:53.660Z,40.75
2019-03-28T02:55:53.666Z,40.72
2019-03-28T02:56:53.642Z,40.80
2019-03-28T02:57:53.637Z,40.87
2019-03-28T02:58:53.649Z,40.74
2019-03-28T02:59:54.670Z,41.04
2019-03-28T03:00:53.612Z,40.92
2019-03-28T03:01:53.617Z,40.73
2019-03-28T03:02:53.634Z,40.69
2019-03-28T03:03:53.606Z,40.72
2019-03-28T03:04:53.600Z,41.15
2019-03-28T03:05:53.621Z,40.77
2019-03-28T03:06:53.604Z,40.75
2019-03-28T03:07:53.604Z,40.80
2019-03-28T03:08:53.596Z,41.29
2019-03-28T03:09:53.574Z,40.85
2019-03-28T03:10:53.569Z,40.82
2019-03-28T03:11:53.593Z,40.84
2019-03-28T03:12:53.801Z,40.92
2019-03-28T03:13:54.545Z,40.99
2019-03-28T03:14:53.541Z,40.97
2019-03-28T03:15:53.540Z,40.98
2019-03-28T03:16:53.566Z,41.01
2019-03-28T03:17:53.522Z,40.97
2019-03-28T03:18:53.539Z,40.96
2019-03-28T03:19:53.495Z,41.11
2019-03-28T03:20:53.486Z,41.11
2019-03-28T03:21:53.485Z,41.12
2019-03-28T03:22:54.524Z,41.00
2019-03-28T03:23:53.463Z,41.12
2019-03-28T03:24:53.450Z,41.20
2019-03-28T03:25:53.476Z,41.08
2019-03-28T03:26:53.442Z,41.17
2019-03-28T03:27:58.523Z,41.12
2019-03-28T03:28:55.432Z,41.97
2019-03-28T03:29:53.411Z,40.94
2019-03-28T03:30:53.406Z,40.88
2019-03-28T03:31:53.865Z,40.80
2019-03-28T03:32:54.392Z,40.76
2019-03-28T03:33:53.377Z,40.91
2019-03-28T03:34:53.372Z,40.81
2019-03-28T03:35:53.385Z,40.76
2019-03-28T03:36:53.352Z,40.87
2019-03-28T03:37:53.345Z,40.88
2019-03-28T03:38:53.352Z,40.85
2019-03-28T03:39:53.331Z,40.77
2019-03-28T03:40:53.332Z,40.91
2019-03-28T03:41:53.319Z,40.88
2019-03-28T03:42:53.307Z,41.47
2019-03-28T03:43:53.330Z,41.02
2019-03-28T03:44:53.292Z,40.73
2019-03-28T03:45:53.284Z,40.84
2019-03-28T03:46:53.823Z,40.82
2019-03-28T03:47:53.260Z,40.78
2019-03-28T03:48:53.281Z,41.00
2019-03-28T03:49:53.305Z,40.85
2019-03-28T03:50:53.264Z,40.93
2019-03-28T03:51:54.264Z,40.79
2019-03-28T03:52:53.245Z,40.92
2019-03-28T03:53:53.255Z,40.81
2019-03-28T03:54:53.236Z,40.87
2019-03-28T03:55:53.254Z,40.86
2019-03-28T03:56:53.229Z,40.85
2019-03-28T03:57:53.209Z,40.85
2019-03-28T03:58:53.204Z,41.26
2019-03-28T03:59:53.193Z,40.93
2019-03-28T04:00:53.213Z,40.85
2019-03-28T04:01:53.181Z,40.93
2019-03-28T04:02:53.167Z,40.89
2019-03-28T04:03:53.165Z,41.34
2019-03-28T04:04:56.386Z,40.86
2019-03-28T04:05:54.161Z,40.80
2019-03-28T04:06:53.144Z,40.93
2019-03-28T04:07:53.139Z,40.93
2019-03-28T04:08:53.871Z,40.83
2019-03-28T04:09:53.130Z,40.93
2019-03-28T04:10:53.113Z,40.83
2019-03-28T04:11:53.102Z,40.86
2019-03-28T04:12:53.096Z,41.04
2019-03-28T04:13:53.090Z,40.90
2019-03-28T04:14:53.078Z,40.99
2019-03-28T04:15:53.091Z,41.10
2019-03-28T04:16:53.070Z,41.13
2019-03-28T04:17:53.065Z,41.31
2019-03-28T04:18:53.083Z,40.98
2019-03-28T04:19:53.047Z,41.11
2019-03-28T04:20:53.043Z,41.19
2019-03-28T04:21:53.086Z,41.15
2019-03-28T04:22:53.031Z,40.94
2019-03-28T04:23:54.019Z,41.12
2019-03-28T04:24:53.044Z,41.04
2019-03-28T04:25:53.005Z,41.08
2019-03-28T04:26:52.995Z,41.02
2019-03-28T04:27:53.025Z,41.10
2019-03-28T04:28:52.983Z,40.88
2019-03-28T04:29:52.984Z,41.12
2019-03-28T04:30:52.983Z,41.34
2019-03-28T04:31:52.958Z,41.26
2019-03-28T04:32:52.956Z,41.40
2019-03-28T04:33:52.938Z,41.36
2019-03-28T04:34:52.931Z,41.00
2019-03-28T04:35:52.936Z,41.19
2019-03-28T04:36:52.929Z,41.53
2019-03-28T04:37:52.931Z,41.67
2019-03-28T04:38:52.914Z,41.33
2019-03-28T04:39:52.906Z,41.21
2019-03-28T04:40:52.928Z,41.21
2019-03-28T04:41:52.892Z,41.15
2019-03-28T04:42:52.886Z,41.57
2019-03-28T04:43:55.801Z,41.47
2019-03-28T04:44:53.867Z,41.26
2019-03-28T04:45:52.857Z,42.56
2019-03-28T04:46:52.864Z,41.42
2019-03-28T04:47:52.844Z,41.27
2019-03-28T04:48:52.843Z,41.43
2019-03-28T04:49:52.859Z,41.66
2019-03-28T04:50:52.823Z,41.25
2019-03-28T04:51:53.381Z,42.00
2019-03-28T04:52:53.087Z,41.75
2019-03-28T04:53:56.217Z,41.73
2019-03-28T04:54:52.804Z,41.71
2019-03-28T04:55:52.783Z,41.80
2019-03-28T04:56:52.781Z,42.10
2019-03-28T04:57:52.790Z,41.74
2019-03-28T04:58:52.759Z,41.68
2019-03-28T04:59:52.757Z,41.84
2019-03-28T05:00:52.775Z,41.55
2019-03-28T05:02:02.548Z,42.05
2019-03-28T05:02:54.751Z,41.56
2019-03-28T05:03:52.776Z,41.16
2019-03-28T05:04:52.736Z,41.44
2019-03-28T05:05:52.727Z,41.33
2019-03-28T05:06:52.715Z,41.58
2019-03-28T05:07:52.713Z,41.40
2019-03-28T05:08:52.706Z,41.32
2019-03-28T05:09:52.697Z,41.09
2019-03-28T05:10:52.685Z,41.82
2019-03-28T05:11:52.695Z,41.31
2019-03-28T05:12:52.663Z,41.46
2019-03-28T05:13:52.668Z,41.41
2019-03-28T05:14:52.673Z,41.16
2019-03-28T05:15:52.651Z,41.39
2019-03-28T05:16:52.641Z,41.64
2019-03-28T05:17:52.652Z,41.12
2019-03-28T05:18:52.647Z,41.57
2019-03-28T05:19:52.643Z,41.41
2019-03-28T05:20:52.661Z,41.62
2019-03-28T05:21:52.626Z,41.89
2019-03-28T05:22:52.621Z,41.66
2019-03-28T05:23:52.632Z,41.34
2019-03-28T05:24:52.598Z,41.60
2019-03-28T05:25:52.604Z,41.57
2019-03-28T05:26:52.582Z,42.61
2019-03-28T05:27:52.588Z,41.35
2019-03-28T05:28:57.739Z,41.18
2019-03-28T05:29:54.561Z,41.75
2019-03-28T05:30:52.564Z,41.53
2019-03-28T05:31:52.557Z,41.64
2019-03-28T05:32:52.542Z,42.35
2019-03-28T05:33:52.591Z,41.33
2019-03-28T05:34:52.502Z,41.23
2019-03-28T05:35:53.642Z,41.10
2019-03-28T05:36:52.519Z,41.28
2019-03-28T05:37:52.548Z,41.94
2019-03-28T05:38:52.490Z,41.54
2019-03-28T05:39:52.490Z,41.45
2019-03-28T05:40:52.505Z,42.09
2019-03-28T05:41:52.484Z,42.04
2019-03-28T05:42:52.451Z,41.25
2019-03-28T05:43:52.446Z,41.83
2019-03-28T05:44:52.437Z,41.67
2019-03-28T05:45:52.479Z,41.17
2019-03-28T05:46:52.422Z,41.52
2019-03-28T05:47:52.427Z,41.47
2019-03-28T05:48:52.404Z,41.37
2019-03-28T05:49:52.417Z,41.60
2019-03-28T05:50:52.390Z,42.12
2019-03-28T05:51:52.388Z,41.59
2019-03-28T05:52:52.384Z,41.59
2019-03-28T05:53:52.381Z,41.53
2019-03-28T05:54:52.353Z,41.91
2019-03-28T05:55:52.345Z,42.91
2019-03-28T05:56:52.343Z,41.69
2019-03-28T05:57:52.360Z,41.65
2019-03-28T05:58:52.329Z,41.66
2019-03-28T05:59:52.318Z,41.84
2019-03-28T06:00:52.315Z,41.35
2019-03-28T06:01:52.304Z,42.24
2019-03-28T06:02:52.317Z,41.84
2019-03-28T06:03:52.309Z,41.69
2019-03-28T06:04:52.318Z,41.36
2019-03-28T06:05:52.335Z,41.30
2019-03-28T06:06:52.309Z,41.84
2019-03-28T06:07:52.291Z,41.72
2019-03-28T06:08:52.830Z,41.76
2019-03-28T06:09:52.304Z,41.77
2019-03-28T06:10:52.311Z,41.71
2019-03-28T06:11:53.051Z,42.09
2019-03-28T06:12:53.280Z,42.09
2019-03-28T06:13:52.285Z,41.87
2019-03-28T06:14:52.271Z,41.68
2019-03-28T06:15:52.273Z,41.32
2019-03-28T06:16:52.264Z,42.17
2019-03-28T06:17:52.262Z,41.34
2019-03-28T06:18:52.276Z,41.35
2019-03-28T06:19:52.245Z,42.13
2019-03-28T06:20:52.233Z,42.55
2019-03-28T06:21:52.226Z,41.47
2019-03-28T06:22:52.224Z,42.40
2019-03-28T06:23:52.215Z,41.29
2019-03-28T06:24:52.215Z,41.29
2019-03-28T06:25:52.265Z,42.38
2019-03-28T06:26:52.332Z,41.40
2019-03-28T06:27:52.293Z,41.80
2019-03-28T06:28:52.179Z,42.45
2019-03-28T06:29:53.086Z,42.02
2019-03-28T06:30:52.173Z,41.41
2019-03-28T06:31:55.403Z,41.62
2019-03-28T06:32:53.162Z,41.61
2019-03-28T06:33:52.213Z,42.35
2019-03-28T06:34:52.369Z,41.70
2019-03-28T06:35:52.178Z,40.86
2019-03-28T06:36:53.169Z,41.82
2019-03-28T06:37:52.146Z,41.54
2019-03-28T06:38:52.136Z,41.04
2019-03-28T06:39:52.150Z,41.50
2019-03-28T06:40:52.130Z,41.68
2019-03-28T06:41:52.114Z,41.36
2019-03-28T06:42:52.151Z,41.43
2019-03-28T06:43:52.117Z,41.73
2019-03-28T06:44:52.113Z,41.71
2019-03-28T06:45:52.132Z,42.19
2019-03-28T06:46:52.102Z,41.44
2019-03-28T06:47:52.085Z,41.50
2019-03-28T06:48:52.077Z,41.61
2019-03-28T06:49:52.095Z,41.93
2019-03-28T06:50:52.061Z,41.24
2019-03-28T06:51:52.063Z,42.19
2019-03-28T06:52:52.070Z,42.00
2019-03-28T06:53:52.044Z,41.36
2019-03-28T06:54:52.042Z,41.49
2019-03-28T06:55:52.038Z,41.18
2019-03-28T06:56:52.053Z,41.23
2019-03-28T06:57:52.009Z,41.61
2019-03-28T06:58:52.001Z,42.12
2019-03-28T06:59:52.034Z,41.33
2019-03-28T07:00:51.982Z,41.62
2019-03-28T07:01:52.113Z,41.56
2019-03-28T07:02:52.964Z,41.40
2019-03-28T07:03:51.971Z,41.67
2019-03-28T07:04:51.951Z,41.97
2019-03-28T07:05:51.946Z,41.26
2019-03-28T07:06:51.990Z,41.32
2019-03-28T07:07:51.974Z,42.19
2019-03-28T07:08:51.960Z,41.57
2019-03-28T07:09:51.963Z,41.44
2019-03-28T07:10:51.947Z,41.58
2019-03-28T07:11:51.970Z,41.68
2019-03-28T07:12:51.950Z,41.32
2019-03-28T07:13:51.919Z,41.40
2019-03-28T07:14:51.919Z,41.36
2019-03-28T07:15:51.938Z,41.95
2019-03-28T07:16:51.909Z,41.31
2019-03-28T07:17:51.966Z,41.88
2019-03-28T07:18:51.907Z,41.46
2019-03-28T07:19:51.884Z,41.46
2019-03-28T07:20:52.415Z,41.26
2019-03-28T07:21:51.900Z,42.51
2019-03-28T07:22:51.874Z,42.06
2019-03-28T07:23:51.886Z,41.36
2019-03-28T07:24:51.865Z,41.89
2019-03-28T07:25:51.853Z,41.94
2019-03-28T07:26:51.844Z,41.25
2019-03-28T07:27:51.866Z,43.64
2019-03-28T07:28:54.267Z,47.70
2019-03-28T07:29:53.198Z,47.01
2019-03-28T07:30:51.844Z,43.77
2019-03-28T07:31:51.811Z,44.81
2019-03-28T07:32:51.794Z,42.31
2019-03-28T07:33:51.817Z,41.62
2019-03-28T07:34:51.795Z,41.77
2019-03-28T07:35:51.789Z,41.11
2019-03-28T07:36:51.775Z,42.48
2019-03-28T07:37:51.771Z,41.30
2019-03-28T07:38:51.767Z,41.60
2019-03-28T07:39:51.767Z,41.52
2019-03-28T07:40:51.760Z,41.37
2019-03-28T07:41:51.741Z,42.34
2019-03-28T07:42:51.735Z,42.23
2019-03-28T07:43:51.806Z,41.42
2019-03-28T07:44:51.834Z,41.27
2019-03-28T07:45:51.751Z,41.24
2019-03-28T07:46:51.747Z,40.98
2019-03-28T07:47:51.747Z,41.00
2019-03-28T07:48:51.729Z,41.13
2019-03-28T07:49:51.824Z,41.30
2019-03-28T07:50:51.714Z,41.89
2019-03-28T07:51:51.726Z,41.27
2019-03-28T07:52:51.697Z,41.60
2019-03-28T07:53:51.694Z,41.47
2019-03-28T07:54:51.697Z,41.83
2019-03-28T07:55:51.679Z,41.28
2019-03-28T07:56:51.665Z,43.24
2019-03-28T07:57:51.780Z,42.25
2019-03-28T07:58:51.647Z,41.46
2019-03-28T08:00:03.465Z,41.75
2019-03-28T08:00:54.068Z,41.40
2019-03-28T08:01:51.863Z,43.36
2019-03-28T08:02:51.663Z,44.50
2019-03-28T08:03:51.682Z,45.48
2019-03-28T08:04:51.651Z,45.93
2019-03-28T08:05:51.636Z,45.88
2019-03-28T08:06:51.932Z,46.02
2019-03-28T08:07:51.702Z,42.84
2019-03-28T08:08:51.625Z,44.13
2019-03-28T08:09:51.612Z,44.62
2019-03-28T08:10:51.609Z,42.16
2019-03-28T08:11:51.628Z,42.02
2019-03-28T08:12:51.607Z,42.72
2019-03-28T08:13:51.592Z,42.41
2019-03-28T08:14:51.591Z,42.08
2019-03-28T08:15:51.583Z,42.99
2019-03-28T08:16:51.941Z,41.62
2019-03-28T08:17:51.570Z,42.66
2019-03-28T08:18:51.576Z,40.94
2019-03-28T08:19:51.553Z,40.88
2019-03-28T08:20:51.549Z,41.65
2019-03-28T08:21:51.538Z,43.82
2019-03-28T08:22:51.546Z,41.88
2019-03-28T08:23:51.541Z,41.59
2019-03-28T08:24:51.573Z,41.27
2019-03-28T08:25:51.515Z,43.16
2019-03-28T08:26:51.518Z,41.00
2019-03-28T08:27:52.685Z,40.64
2019-03-28T08:28:51.504Z,41.26
2019-03-28T08:29:51.504Z,41.87
2019-03-28T08:30:51.513Z,43.28
2019-03-28T08:31:51.507Z,43.37
2019-03-28T08:32:51.506Z,42.97
2019-03-28T08:33:52.383Z,43.79
2019-03-28T08:34:51.450Z,41.26
2019-03-28T08:35:51.452Z,41.06
2019-03-28T08:36:51.446Z,40.96
2019-03-28T08:37:51.443Z,41.63
2019-03-28T08:38:51.459Z,40.74
2019-03-28T08:39:51.414Z,40.69
2019-03-28T08:40:51.660Z,41.71
2019-03-28T08:41:51.405Z,41.56
2019-03-28T08:42:51.402Z,41.19
2019-03-28T08:43:51.398Z,40.96
2019-03-28T08:44:51.403Z,41.45
2019-03-28T08:45:51.385Z,41.17
2019-03-28T08:46:51.380Z,40.71
2019-03-28T08:47:52.375Z,41.09
2019-03-28T08:48:51.388Z,41.15
2019-03-28T08:49:51.354Z,40.30
2019-03-28T08:50:51.354Z,41.23
2019-03-28T08:51:51.359Z,41.00
2019-03-28T08:52:51.340Z,40.46
2019-03-28T08:53:51.330Z,40.28
2019-03-28T08:54:51.324Z,42.45
2019-03-28T08:55:51.330Z,41.32
2019-03-28T08:56:51.307Z,41.60
2019-03-28T08:57:51.294Z,41.76
2019-03-28T08:58:51.326Z,40.73
2019-03-28T08:59:51.298Z,40.73
2019-03-28T09:00:52.841Z,40.77
2019-03-28T09:01:52.290Z,41.10
2019-03-28T09:02:51.280Z,40.73
2019-03-28T09:03:51.273Z,40.68
2019-03-28T09:04:51.267Z,40.56
2019-03-28T09:05:51.270Z,40.78
2019-03-28T09:06:51.258Z,40.70
2019-03-28T09:07:51.281Z,42.62
2019-03-28T09:08:51.238Z,40.44
2019-03-28T09:09:51.228Z,40.35
2019-03-28T09:10:51.240Z,40.48
2019-03-28T09:11:51.210Z,40.70
2019-03-28T09:12:51.229Z,40.85
2019-03-28T09:13:51.199Z,40.38
2019-03-28T09:14:51.192Z,40.30
2019-03-28T09:15:51.200Z,40.67
2019-03-28T09:16:51.200Z,41.20
2019-03-28T09:17:51.196Z,40.92
2019-03-28T09:18:51.193Z,40.52
2019-03-28T09:19:51.170Z,41.27
2019-03-28T09:20:51.356Z,40.74
2019-03-28T09:21:51.173Z,40.43
2019-03-28T09:22:51.149Z,41.55
2019-03-28T09:23:51.163Z,42.61
2019-03-28T09:24:51.133Z,41.91
2019-03-28T09:25:51.163Z,40.55
2019-03-28T09:26:51.127Z,40.49
2019-03-28T09:27:51.823Z,40.37
2019-03-28T09:28:52.102Z,40.43
2019-03-28T09:29:51.090Z,40.98
2019-03-28T09:30:51.096Z,41.67
2019-03-28T09:31:51.084Z,41.44
2019-03-28T09:32:51.078Z,40.16
2019-03-28T09:33:51.073Z,41.68
2019-03-28T09:34:51.053Z,41.10
2019-03-28T09:35:51.192Z,40.52
2019-03-28T09:36:51.040Z,40.66
2019-03-28T09:37:51.029Z,40.25
2019-03-28T09:38:51.027Z,40.77
2019-03-28T09:39:51.020Z,40.49
2019-03-28T09:40:50.999Z,40.76
2019-03-28T09:41:51.014Z,40.29
2019-03-28T09:42:51.005Z,40.41
2019-03-28T09:43:55.637Z,41.02
2019-03-28T09:44:51.970Z,40.32
2019-03-28T09:45:50.963Z,40.16
2019-03-28T09:46:50.949Z,41.42
2019-03-28T09:47:50.999Z,41.42
2019-03-28T09:48:50.970Z,40.83
2019-03-28T09:49:50.951Z,40.76
2019-03-28T09:50:50.945Z,40.31
2019-03-28T09:51:50.936Z,40.65
2019-03-28T09:52:50.931Z,41.01
2019-03-28T09:53:50.931Z,40.47
2019-03-28T09:54:50.925Z,40.74
2019-03-28T09:55:50.905Z,40.43
2019-03-28T09:56:50.902Z,40.71
2019-03-28T09:57:50.883Z,40.38
2019-03-28T09:58:50.894Z,40.58
2019-03-28T09:59:50.898Z,40.47
2019-03-28T10:01:02.099Z,40.45
2019-03-28T10:01:52.914Z,41.03
2019-03-28T10:02:50.873Z,40.77
2019-03-28T10:03:50.845Z,40.57
2019-03-28T10:04:50.848Z,39.97
2019-03-28T10:05:50.831Z,40.28
2019-03-28T10:06:50.842Z,41.04
2019-03-28T10:07:50.815Z,40.96
2019-03-28T10:08:50.814Z,41.11
2019-03-28T10:09:50.844Z,40.92
2019-03-28T10:10:50.790Z,40.72
2019-03-28T10:11:50.780Z,40.87
2019-03-28T10:12:50.788Z,40.96
2019-03-28T10:13:50.773Z,42.37
2019-03-28T10:14:50.764Z,41.55
2019-03-28T10:15:50.761Z,40.90
2019-03-28T10:16:50.747Z,40.38
2019-03-28T10:17:50.731Z,41.16
2019-03-28T10:18:50.730Z,40.39
2019-03-28T10:19:50.733Z,41.31
2019-03-28T10:20:50.720Z,40.62
2019-03-28T10:21:50.721Z,41.08
2019-03-28T10:22:51.004Z,40.70
2019-03-28T10:23:50.715Z,40.38
2019-03-28T10:24:50.699Z,40.30
2019-03-28T10:25:50.709Z,40.42
2019-03-28T10:26:50.685Z,40.42
2019-03-28T10:27:50.694Z,40.73
2019-03-28T10:28:50.671Z,40.97
2019-03-28T10:29:50.759Z,40.67
2019-03-28T10:30:50.677Z,40.24
2019-03-28T10:31:50.666Z,42.03
2019-03-28T10:32:50.676Z,40.48
2019-03-28T10:33:50.742Z,40.90
2019-03-28T10:34:50.645Z,40.78
2019-03-28T10:35:50.643Z,40.75
2019-03-28T10:36:50.637Z,41.23
2019-03-28T10:37:50.619Z,40.34
2019-03-28T10:38:50.628Z,42.50
2019-03-28T10:39:50.605Z,43.36
2019-03-28T10:40:50.604Z,43.73
2019-03-28T10:41:50.599Z,45.58
2019-03-28T10:42:50.599Z,41.22
2019-03-28T10:43:50.625Z,42.09
2019-03-28T10:44:50.620Z,40.36
2019-03-28T10:45:50.581Z,43.93
2019-03-28T10:46:50.568Z,41.97
2019-03-28T10:47:50.563Z,40.32
2019-03-28T10:48:50.589Z,40.64
2019-03-28T10:49:50.539Z,40.11
2019-03-28T10:50:50.539Z,40.11
2019-03-28T10:51:50.532Z,40.64
2019-03-28T10:52:50.531Z,40.09
2019-03-28T10:53:50.532Z,40.13
2019-03-28T10:54:50.662Z,40.75
2019-03-28T10:55:50.516Z,40.93
2019-03-28T10:56:52.588Z,40.34
2019-03-28T10:57:51.511Z,40.53
2019-03-28T10:58:50.682Z,39.79
2019-03-28T10:59:51.703Z,40.18
2019-03-28T11:00:50.502Z,40.37
2019-03-28T11:01:51.138Z,39.49
2019-03-28T11:02:51.535Z,39.64
2019-03-28T11:03:50.519Z,39.63
2019-03-28T11:04:50.449Z,40.49
2019-03-28T11:05:50.441Z,40.40
2019-03-28T11:06:50.431Z,39.68
2019-03-28T11:07:50.537Z,40.51
2019-03-28T11:08:51.513Z,40.32
2019-03-28T11:09:50.448Z,40.50
2019-03-28T11:10:51.095Z,40.13
2019-03-28T11:11:50.393Z,40.81
2019-03-28T11:12:50.400Z,40.38
2019-03-28T11:13:50.399Z,40.51
2019-03-28T11:14:50.375Z,40.47
2019-03-28T11:15:50.397Z,40.63
2019-03-28T11:16:50.360Z,40.83
2019-03-28T11:17:50.352Z,40.51
2019-03-28T11:18:50.337Z,40.51
2019-03-28T11:19:50.335Z,40.71
2019-03-28T11:20:50.325Z,40.79
2019-03-28T11:21:50.322Z,40.63
2019-03-28T11:22:50.325Z,41.63
2019-03-28T11:23:50.314Z,40.63
2019-03-28T11:24:50.355Z,40.84
2019-03-28T11:25:50.317Z,41.13
2019-03-28T11:26:50.317Z,41.51
2019-03-28T11:27:50.301Z,41.50
2019-03-28T11:28:50.332Z,40.80
2019-03-28T11:29:50.292Z,41.09
2019-03-28T11:30:50.283Z,40.93
2019-03-28T11:31:52.326Z,40.93
2019-03-28T11:32:51.264Z,41.16
2019-03-28T11:33:50.258Z,41.30
2019-03-28T11:34:50.294Z,41.15
2019-03-28T11:35:50.270Z,41.27
2019-03-28T11:36:50.249Z,41.49
2019-03-28T11:37:50.242Z,41.36
2019-03-28T11:38:50.252Z,41.16
2019-03-28T11:39:50.225Z,41.80
2019-03-28T11:40:50.227Z,41.19
2019-03-28T11:41:50.213Z,41.50
2019-03-28T11:42:51.978Z,41.22
2019-03-28T11:43:51.191Z,41.27
2019-03-28T11:44:50.210Z,41.32
2019-03-28T11:45:50.213Z,41.71
2019-03-28T11:46:50.178Z,41.14
2019-03-28T11:47:50.168Z,41.13
2019-03-28T11:48:50.206Z,40.89
2019-03-28T11:49:51.144Z,40.86
2019-03-28T11:50:50.152Z,41.39
2019-03-28T11:51:50.133Z,40.95
2019-03-28T11:52:50.126Z,41.37
2019-03-28T11:53:50.115Z,41.72
2019-03-28T11:54:50.104Z,40.79
2019-03-28T11:55:50.096Z,40.99
2019-03-28T11:56:50.091Z,40.62
2019-03-28T11:57:50.082Z,41.14
2019-03-28T11:58:50.090Z,41.55
2019-03-28T11:59:50.069Z,41.10
2019-03-28T12:00:50.076Z,41.41
2019-03-28T12:01:59.969Z,41.58
2019-03-28T12:02:52.044Z,40.94
2019-03-28T12:03:50.034Z,40.60
2019-03-28T12:04:50.028Z,40.90
2019-03-28T12:05:52.960Z,40.82
2019-03-28T12:06:50.655Z,40.93
2019-03-28T12:07:50.101Z,41.15
2019-03-28T12:08:49.993Z,41.12
2019-03-28T12:09:50.015Z,41.55
2019-03-28T12:10:49.982Z,41.71
2019-03-28T12:11:52.795Z,41.31
2019-03-28T12:12:50.121Z,41.45
2019-03-28T12:13:49.965Z,42.32
2019-03-28T12:14:49.973Z,41.08
2019-03-28T12:15:50.848Z,40.91
2019-03-28T12:16:49.963Z,40.99
2019-03-28T12:17:49.970Z,41.29
2019-03-28T12:18:49.932Z,41.15
2019-03-28T12:19:49.951Z,41.26
2019-03-28T12:20:49.920Z,41.50
2019-03-28T12:21:49.910Z,40.95
2019-03-28T12:22:49.916Z,41.23
2019-03-28T12:23:49.904Z,41.03
2019-03-28T12:24:49.947Z,41.38
2019-03-28T12:25:49.878Z,41.72
2019-03-28T12:26:50.525Z,41.19
2019-03-28T12:27:49.949Z,41.12
2019-03-28T12:28:50.242Z,41.86
2019-03-28T12:29:50.057Z,43.79
2019-03-28T12:30:49.901Z,42.41
2019-03-28T12:31:49.828Z,48.03
2019-03-28T12:32:49.829Z,46.30
2019-03-28T12:33:49.856Z,45.61
2019-03-28T12:34:49.808Z,44.66
2019-03-28T12:35:49.805Z,45.27
2019-03-28T12:36:49.793Z,46.03
2019-03-28T12:37:49.783Z,44.23
2019-03-28T12:38:49.777Z,46.17
2019-03-28T12:39:49.777Z,47.40
2019-03-28T12:40:49.763Z,45.48
2019-03-28T12:41:49.758Z,47.63
2019-03-28T12:42:49.746Z,46.71
2019-03-28T12:43:49.741Z,47.77
2019-03-28T12:44:56.802Z,46.60
2019-03-28T12:45:52.640Z,49.12
2019-03-28T12:46:49.776Z,46.73
2019-03-28T12:47:49.705Z,44.98
2019-03-28T12:48:49.700Z,46.22
2019-03-28T12:49:49.714Z,45.70
2019-03-28T12:50:58.677Z,43.15
2019-03-28T12:51:52.625Z,49.63
2019-03-28T12:52:49.685Z,45.30